Terminal Aerodrome Forecast
Issued by NWS

Current Version | Previous Version | Graphics & Text | Print | Product List | Glossary On
Versions: 1 2 3 4 5 6 7 8 9 10 11 12 13 14 15 16 17 18
000
FTUS41 KPBZ 280522
TAFMGW
TAF
KMGW 280522Z 2806/2906 VRB03KT P6SM BKN015 OVC025
     FM280800 VRB03KT 5SM BR SCT006 OVC010
     FM281500 VRB04KT 5SM SHRA OVC015
     FM282100 VRB03KT 3SM SHRA OVC020
     FM290200 04006KT 2SM +SHRA VCTS OVC008CB=

USA.gov is the U.S. government's official web portal to all federal, state and local government web resources and services.